createdAt,value
2018-10-06T00:00:00.769Z,77.65
2018-10-06T00:03:04.284Z,78.29
2018-10-06T00:06:07.885Z,78.35
2018-10-06T00:09:11.354Z,78.40
2018-10-06T00:12:14.753Z,78.76
2018-10-06T00:15:18.281Z,78.80
2018-10-06T00:18:21.827Z,78.49
2018-10-06T00:21:25.292Z,78.63
2018-10-06T00:24:28.832Z,78.22
2018-10-06T00:27:32.269Z,78.81
2018-10-06T00:30:35.776Z,78.08
2018-10-06T00:33:39.373Z,79.26
2018-10-06T00:36:42.952Z,78.96
2018-10-06T00:39:46.637Z,78.00
2018-10-06T00:42:50.208Z,78.61
2018-10-06T00:45:53.750Z,79.24
2018-10-06T00:48:57.199Z,79.45
2018-10-06T00:52:00.708Z,79.48
2018-10-06T00:55:04.307Z,79.95
2018-10-06T00:58:07.722Z,80.23
2018-10-06T01:01:11.225Z,78.97
2018-10-06T01:04:14.705Z,78.81
2018-10-06T01:07:18.123Z,79.42
2018-10-06T01:10:22.020Z,78.51
2018-10-06T01:13:25.531Z,79.60
2018-10-06T01:16:29.041Z,78.82
2018-10-06T01:19:32.608Z,79.18
2018-10-06T01:22:36.095Z,79.75
2018-10-06T01:25:39.621Z,79.52
2018-10-06T01:28:43.032Z,80.16
2018-10-06T01:31:46.453Z,80.02
2018-10-06T01:34:49.995Z,79.26
2018-10-06T01:37:53.458Z,79.41
2018-10-06T01:40:56.969Z,80.03
2018-10-06T01:44:00.419Z,79.47
2018-10-06T01:47:03.846Z,80.56
2018-10-06T01:50:07.674Z,79.61
2018-10-06T01:53:11.170Z,80.06
2018-10-06T01:56:14.765Z,80.74
2018-10-06T01:59:18.196Z,81.08
2018-10-06T02:02:21.704Z,80.95
2018-10-06T02:05:25.178Z,80.65
2018-10-06T02:08:28.582Z,80.23
2018-10-06T02:11:32.051Z,80.59
2018-10-06T02:14:35.885Z,80.89
2018-10-06T02:17:39.287Z,80.01
2018-10-06T02:20:42.690Z,80.32
2018-10-06T02:23:46.093Z,81.13
2018-10-06T02:26:49.483Z,81.22
2018-10-06T02:29:53.056Z,80.77
2018-10-06T02:32:56.495Z,81.21
2018-10-06T02:35:59.899Z,80.01
2018-10-06T02:39:03.765Z,81.00
2018-10-06T02:42:07.292Z,80.96
2018-10-06T02:45:11.230Z,81.40
2018-10-06T02:48:14.733Z,80.93
2018-10-06T02:51:18.184Z,82.10
2018-10-06T02:54:21.763Z,81.93
2018-10-06T02:57:25.252Z,82.21
2018-10-06T03:00:28.643Z,81.61
2018-10-06T03:03:32.011Z,81.09
2018-10-06T03:06:35.446Z,82.07
2018-10-06T03:09:38.859Z,82.15
2018-10-06T03:12:42.321Z,82.37
2018-10-06T03:15:45.876Z,81.78
2018-10-06T03:18:49.382Z,81.87
2018-10-06T03:21:52.844Z,82.17
2018-10-06T03:24:56.248Z,82.77
2018-10-06T03:27:59.902Z,83.08
2018-10-06T03:31:03.327Z,82.98
2018-10-06T03:34:06.734Z,83.41
2018-10-06T03:37:10.138Z,83.39
2018-10-06T03:40:13.668Z,82.77
2018-10-06T03:43:17.178Z,82.30
2018-10-06T03:46:20.554Z,83.06
2018-10-06T03:49:23.987Z,83.74
2018-10-06T03:52:27.335Z,83.93
2018-10-06T03:55:30.796Z,83.39
2018-10-06T03:58:34.304Z,84.10
2018-10-06T04:01:38.213Z,83.99
2018-10-06T04:04:41.782Z,83.91
2018-10-06T04:07:45.227Z,84.45
2018-10-06T04:10:48.681Z,84.72
2018-10-06T04:13:52.156Z,84.47
2018-10-06T04:16:55.567Z,84.97
2018-10-06T04:19:59.201Z,85.02
2018-10-06T04:23:02.658Z,84.59
2018-10-06T04:26:06.198Z,84.97
2018-10-06T04:29:10.056Z,85.00
2018-10-06T04:32:13.571Z,84.11
2018-10-06T04:35:17.074Z,82.93
2018-10-06T04:38:20.592Z,83.59
2018-10-06T04:41:24.078Z,83.42
2018-10-06T04:44:28.022Z,83.61
2018-10-06T04:47:31.494Z,83.57
2018-10-06T04:50:35.133Z,84.21
2018-10-06T04:53:38.610Z,83.98
2018-10-06T04:56:42.106Z,84.20
2018-10-06T04:59:45.618Z,83.40
2018-10-06T05:02:49.122Z,84.28
2018-10-06T05:05:52.648Z,84.25
2018-10-06T05:08:56.128Z,83.80
2018-10-06T05:11:59.621Z,84.25
2018-10-06T05:15:03.134Z,84.11
2018-10-06T05:18:06.706Z,84.67
2018-10-06T05:21:10.128Z,84.59
2018-10-06T05:24:13.632Z,84.25
2018-10-06T05:27:17.147Z,84.12
2018-10-06T05:30:20.644Z,84.82
2018-10-06T05:33:24.131Z,85.08
2018-10-06T05:36:27.629Z,84.28
2018-10-06T05:39:31.140Z,84.56
2018-10-06T05:42:34.634Z,84.63
2018-10-06T05:45:38.223Z,84.27
2018-10-06T05:48:41.648Z,84.78
2018-10-06T05:51:45.142Z,84.33
2018-10-06T05:54:48.655Z,84.32
2018-10-06T05:57:52.254Z,84.80
2018-10-06T06:00:55.729Z,84.66
2018-10-06T06:03:59.173Z,84.52
2018-10-06T06:07:03.593Z,84.90
2018-10-06T06:10:07.140Z,84.92
2018-10-06T06:13:10.676Z,84.96
2018-10-06T06:16:14.185Z,84.32
2018-10-06T06:19:17.607Z,83.72
2018-10-06T06:22:21.098Z,83.57
2018-10-06T06:25:24.603Z,84.76
2018-10-06T06:28:28.159Z,83.71
2018-10-06T06:31:31.764Z,84.23
2018-10-06T06:34:35.105Z,84.37
2018-10-06T06:37:38.601Z,84.45
2018-10-06T06:40:43.132Z,84.42
2018-10-06T06:43:46.732Z,84.06
2018-10-06T06:46:50.138Z,83.63
2018-10-06T06:49:53.657Z,83.01
2018-10-06T06:52:57.286Z,83.13
2018-10-06T06:56:00.756Z,82.54
2018-10-06T06:59:04.558Z,82.80
2018-10-06T07:02:07.956Z,82.28
2018-10-06T07:05:11.374Z,82.20
2018-10-06T07:08:14.867Z,81.64
2018-10-06T07:11:18.270Z,81.32
2018-10-06T07:14:21.772Z,81.52
2018-10-06T07:17:25.183Z,80.22
2018-10-06T07:20:28.684Z,79.89
2018-10-06T07:23:32.284Z,79.71
2018-10-06T07:26:35.853Z,79.11
2018-10-06T07:29:39.514Z,78.48
2018-10-06T07:32:42.985Z,78.32
2018-10-06T07:35:48.849Z,78.04
2018-10-06T07:38:52.367Z,77.46
2018-10-06T07:41:55.935Z,76.82
2018-10-06T07:44:59.462Z,76.89
2018-10-06T07:48:02.850Z,76.64
2018-10-06T07:51:06.734Z,75.73
2018-10-06T07:54:10.348Z,75.57
2018-10-06T07:57:13.794Z,74.97
2018-10-06T08:00:17.302Z,74.72
2018-10-06T08:03:21.391Z,73.62
2018-10-06T08:06:25.251Z,72.97
2018-10-06T08:09:29.247Z,72.68
2018-10-06T08:12:32.700Z,71.87
2018-10-06T08:15:36.104Z,72.23
2018-10-06T08:18:39.508Z,71.08
2018-10-06T08:21:42.964Z,70.58
2018-10-06T08:24:46.388Z,70.86
2018-10-06T08:27:49.798Z,70.37
2018-10-06T08:30:53.197Z,69.99
2018-10-06T08:33:56.721Z,69.92
2018-10-06T08:37:00.139Z,68.38
2018-10-06T08:40:03.705Z,68.13
2018-10-06T08:43:07.358Z,68.27
2018-10-06T08:46:10.817Z,67.78
2018-10-06T08:49:14.318Z,67.42
2018-10-06T08:52:17.713Z,66.15
2018-10-06T08:55:21.124Z,65.36
2018-10-06T08:58:24.522Z,65.19
2018-10-06T09:01:27.968Z,64.41
2018-10-06T09:04:31.495Z,63.68
2018-10-06T09:07:35.177Z,63.38
2018-10-06T09:10:38.558Z,62.70
2018-10-06T09:13:42.092Z,62.95
2018-10-06T09:16:45.558Z,62.96
2018-10-06T09:19:48.939Z,62.43
2018-10-06T09:22:52.538Z,62.85
2018-10-06T09:25:56.135Z,61.20
2018-10-06T09:28:59.684Z,61.06
2018-10-06T09:32:03.078Z,61.08
2018-10-06T09:35:06.668Z,59.89
2018-10-06T09:38:10.118Z,60.59
2018-10-06T09:41:13.556Z,59.92
2018-10-06T09:44:17.126Z,59.32
2018-10-06T09:47:20.663Z,60.12
2018-10-06T09:50:24.807Z,60.50
2018-10-06T09:53:28.341Z,61.13
2018-10-06T09:56:31.862Z,60.72
2018-10-06T09:59:35.642Z,61.73
2018-10-06T10:02:44.432Z,62.10
2018-10-06T10:05:51.837Z,62.25
2018-10-06T10:08:55.247Z,61.84
2018-10-06T10:11:58.729Z,61.64
2018-10-06T10:15:02.222Z,61.44
2018-10-06T10:18:07.092Z,61.44
2018-10-06T10:21:11.937Z,61.23
2018-10-06T10:24:16.399Z,61.20
2018-10-06T10:27:19.958Z,60.56
2018-10-06T10:30:23.937Z,59.41
2018-10-06T10:33:27.353Z,58.79
2018-10-06T10:36:30.951Z,56.28
2018-10-06T10:39:34.558Z,52.30
2018-10-06T10:42:37.957Z,51.06
2018-10-06T10:45:41.448Z,51.14
2018-10-06T10:48:44.934Z,50.74
2018-10-06T10:51:48.506Z,51.20
2018-10-06T10:54:51.963Z,49.39
2018-10-06T10:57:55.522Z,49.52
2018-10-06T11:00:59.223Z,49.10
2018-10-06T11:04:02.802Z,47.99
2018-10-06T11:07:06.271Z,47.36
2018-10-06T11:10:10.179Z,47.17
2018-10-06T11:13:13.681Z,46.25
2018-10-06T11:16:17.171Z,47.09
2018-10-06T11:19:20.686Z,47.56
2018-10-06T11:22:24.195Z,47.67
2018-10-06T11:25:27.709Z,47.44
2018-10-06T11:28:31.203Z,47.48
2018-10-06T11:31:34.699Z,47.16
2018-10-06T11:34:38.214Z,47.38
2018-10-06T11:37:41.827Z,46.11
2018-10-06T11:40:45.238Z,45.65
2018-10-06T11:43:48.745Z,45.57
2018-10-06T11:46:52.194Z,44.58
2018-10-06T11:49:55.709Z,44.34
2018-10-06T11:52:59.266Z,44.00
2018-10-06T11:56:02.839Z,43.21
2018-10-06T11:59:06.520Z,42.23
2018-10-06T12:02:10.909Z,42.93
2018-10-06T12:05:14.344Z,43.47
2018-10-06T12:08:17.896Z,43.92
2018-10-06T12:11:21.502Z,42.97
2018-10-06T12:14:24.981Z,42.63
2018-10-06T12:17:29.498Z,41.97
2018-10-06T12:20:32.999Z,42.92
2018-10-06T12:23:36.487Z,42.82
2018-10-06T12:26:39.991Z,41.82
2018-10-06T12:29:43.685Z,41.72
2018-10-06T12:32:47.362Z,41.72
2018-10-06T12:35:50.805Z,41.56
2018-10-06T12:38:54.227Z,40.98
2018-10-06T12:41:57.780Z,41.51
2018-10-06T12:45:01.227Z,41.45
2018-10-06T12:48:04.886Z,41.63
2018-10-06T12:51:08.427Z,41.70
2018-10-06T12:54:11.960Z,42.33
2018-10-06T12:57:15.629Z,41.70
2018-10-06T13:00:19.447Z,42.22
2018-10-06T13:03:23.049Z,41.91
2018-10-06T13:06:26.564Z,41.67
2018-10-06T13:09:30.059Z,41.08
2018-10-06T13:12:33.526Z,41.44
2018-10-06T13:15:37.017Z,42.64
2018-10-06T13:18:40.540Z,42.23
2018-10-06T13:21:44.061Z,42.57
2018-10-06T13:24:47.455Z,43.40
2018-10-06T13:27:50.848Z,43.68
2018-10-06T13:30:54.262Z,43.44
2018-10-06T13:33:57.639Z,43.89
2018-10-06T13:37:01.122Z,44.48
2018-10-06T13:40:04.594Z,44.58
2018-10-06T13:43:08.084Z,44.43
2018-10-06T13:46:11.579Z,44.40
2018-10-06T13:49:15.067Z,44.98
2018-10-06T13:52:18.516Z,45.29
2018-10-06T13:55:21.991Z,44.53
2018-10-06T13:58:25.688Z,44.91
2018-10-06T14:01:29.200Z,45.41
2018-10-06T14:04:33.010Z,45.36
2018-10-06T14:07:36.411Z,45.94
2018-10-06T14:10:39.775Z,45.95
2018-10-06T14:13:43.181Z,46.46
2018-10-06T14:16:46.574Z,46.39
2018-10-06T14:19:49.997Z,45.82
2018-10-06T14:22:53.387Z,46.29
2018-10-06T14:25:56.766Z,46.83
2018-10-06T14:29:00.173Z,46.38
2018-10-06T14:32:03.696Z,47.24
2018-10-06T14:35:07.114Z,47.18
2018-10-06T14:38:10.674Z,47.45
2018-10-06T14:41:14.151Z,47.13
2018-10-06T14:44:17.754Z,47.77
2018-10-06T14:47:21.157Z,47.11
2018-10-06T14:50:24.506Z,47.64
2018-10-06T14:53:28.198Z,46.81
2018-10-06T14:56:31.594Z,47.10
2018-10-06T14:59:34.984Z,46.54
2018-10-06T15:02:38.600Z,46.60
2018-10-06T15:05:42.165Z,46.80
2018-10-06T15:08:45.689Z,47.59
2018-10-06T15:11:49.149Z,47.19
2018-10-06T15:14:52.511Z,47.57
2018-10-06T15:17:55.977Z,47.90
2018-10-06T15:20:59.568Z,48.11
2018-10-06T15:24:03.007Z,48.20
2018-10-06T15:27:06.554Z,48.64
2018-10-06T15:30:10.016Z,48.18
2018-10-06T15:33:13.534Z,48.61
2018-10-06T15:36:17.032Z,48.91
2018-10-06T15:39:20.529Z,49.07
2018-10-06T15:42:24.141Z,49.31
2018-10-06T15:45:27.655Z,49.19
2018-10-06T15:48:31.173Z,49.25
2018-10-06T15:51:34.624Z,49.13
2018-10-06T15:54:38.106Z,48.89
2018-10-06T15:57:41.646Z,49.21
2018-10-06T16:00:45.193Z,49.54
2018-10-06T16:03:48.637Z,50.08
2018-10-06T16:06:52.200Z,50.58
2018-10-06T16:09:55.741Z,50.34
2018-10-06T16:12:59.277Z,50.59
2018-10-06T16:16:02.836Z,50.98
2018-10-06T16:19:06.358Z,51.18
2018-10-06T16:22:09.879Z,51.66
2018-10-06T16:25:13.374Z,52.01
2018-10-06T16:28:16.845Z,52.08
2018-10-06T16:31:20.482Z,52.02
2018-10-06T16:34:24.058Z,52.07
2018-10-06T16:37:27.594Z,52.79
2018-10-06T16:40:31.079Z,53.27
2018-10-06T16:43:34.568Z,53.90
2018-10-06T16:46:38.066Z,54.21
2018-10-06T16:49:41.605Z,54.60
2018-10-06T16:52:45.165Z,54.77
2018-10-06T16:55:48.679Z,55.01
2018-10-06T16:58:52.168Z,55.58
2018-10-06T17:01:55.622Z,55.93
2018-10-06T17:04:59.072Z,56.08
2018-10-06T17:08:02.633Z,56.09
2018-10-06T17:11:06.152Z,56.51
2018-10-06T17:14:09.983Z,56.98
2018-10-06T17:17:13.521Z,57.17
2018-10-06T17:20:17.026Z,57.42
2018-10-06T17:23:20.641Z,57.86
2018-10-06T17:26:24.212Z,57.72
2018-10-06T17:29:27.622Z,58.16
2018-10-06T17:32:31.100Z,58.35
2018-10-06T17:35:34.602Z,58.82
2018-10-06T17:38:38.199Z,59.34
2018-10-06T17:41:41.830Z,60.05
2018-10-06T17:44:45.305Z,60.39
2018-10-06T17:47:48.743Z,60.73
2018-10-06T17:50:52.221Z,60.95
2018-10-06T17:53:55.784Z,61.24
2018-10-06T17:56:59.327Z,61.52
2018-10-06T18:00:02.756Z,61.58
2018-10-06T18:03:06.212Z,61.15
2018-10-06T18:06:10.742Z,61.35
2018-10-06T18:09:14.200Z,61.58
2018-10-06T18:12:17.676Z,61.32
2018-10-06T18:15:21.096Z,61.18
2018-10-06T18:18:24.581Z,60.91
2018-10-06T18:21:28.190Z,61.27
2018-10-06T18:24:31.504Z,60.70
2018-10-06T18:27:35.087Z,61.42
2018-10-06T18:30:38.631Z,61.32
2018-10-06T18:33:42.156Z,61.57
2018-10-06T18:36:45.626Z,61.52
2018-10-06T18:39:49.182Z,61.49
2018-10-06T18:42:52.778Z,61.81
2018-10-06T18:45:56.234Z,62.05
2018-10-06T18:48:59.736Z,61.93
2018-10-06T18:52:03.730Z,62.65
2018-10-06T18:55:07.767Z,62.69
2018-10-06T18:58:11.358Z,63.04
2018-10-06T19:01:14.736Z,63.05
2018-10-06T19:04:18.679Z,63.61
2018-10-06T19:07:21.953Z,63.36
2018-10-06T19:10:25.338Z,63.17
2018-10-06T19:13:28.877Z,63.47
2018-10-06T19:16:32.352Z,63.62
2018-10-06T19:19:35.789Z,64.00
2018-10-06T19:22:39.140Z,64.38
2018-10-06T19:25:42.693Z,64.70
2018-10-06T19:28:46.061Z,64.44
2018-10-06T19:31:50.486Z,65.38
2018-10-06T19:34:53.902Z,65.25
2018-10-06T19:37:57.303Z,65.71
2018-10-06T19:41:00.851Z,65.42
2018-10-06T19:44:04.373Z,65.69
2018-10-06T19:47:07.781Z,66.12
2018-10-06T19:50:11.317Z,65.75
2018-10-06T19:53:14.671Z,66.18
2018-10-06T19:56:18.155Z,66.47
2018-10-06T19:59:21.574Z,66.49
2018-10-06T20:02:24.999Z,66.71
2018-10-06T20:05:28.406Z,67.11
2018-10-06T20:08:31.847Z,67.27
2018-10-06T20:11:35.399Z,67.56
2018-10-06T20:14:38.891Z,67.80
2018-10-06T20:17:42.524Z,67.52
2018-10-06T20:20:45.907Z,67.58
2018-10-06T20:23:49.354Z,67.15
2018-10-06T20:26:52.866Z,67.53
2018-10-06T20:29:56.385Z,67.62
2018-10-06T20:32:59.904Z,67.00
2018-10-06T20:36:03.382Z,66.50
2018-10-06T20:39:08.145Z,66.52
2018-10-06T20:42:11.731Z,66.84
2018-10-06T20:45:15.261Z,67.28
2018-10-06T20:48:18.839Z,67.50
2018-10-06T20:51:22.449Z,67.12
2018-10-06T20:54:25.951Z,67.62
2018-10-06T20:57:29.517Z,67.21
2018-10-06T21:00:32.960Z,67.68
2018-10-06T21:03:36.531Z,67.04
2018-10-06T21:06:40.136Z,67.94
2018-10-06T21:09:43.796Z,68.16
2018-10-06T21:12:47.366Z,67.97
2018-10-06T21:15:51.008Z,67.72
2018-10-06T21:18:54.625Z,67.75
2018-10-06T21:21:58.299Z,67.36
2018-10-06T21:25:01.876Z,67.75
2018-10-06T21:28:05.319Z,67.89
2018-10-06T21:31:09.452Z,69.00
2018-10-06T21:34:12.987Z,68.28
2018-10-06T21:37:16.417Z,68.47
2018-10-06T21:40:19.922Z,69.10
2018-10-06T21:43:23.454Z,69.75
2018-10-06T21:46:27.018Z,69.95
2018-10-06T21:49:30.514Z,69.95
2018-10-06T21:52:34.145Z,70.47
2018-10-06T21:55:37.649Z,69.74
2018-10-06T21:58:41.236Z,70.34
2018-10-06T22:01:44.819Z,70.43
2018-10-06T22:04:48.266Z,70.64
2018-10-06T22:07:51.843Z,70.66
2018-10-06T22:10:55.376Z,70.39
2018-10-06T22:13:58.878Z,70.90
2018-10-06T22:17:02.376Z,69.86
2018-10-06T22:20:06.962Z,71.00
2018-10-06T22:23:10.496Z,71.04
2018-10-06T22:26:14.010Z,70.74
2018-10-06T22:29:17.566Z,70.94
2018-10-06T22:32:20.997Z,71.31
2018-10-06T22:35:24.488Z,71.26
2018-10-06T22:38:27.891Z,71.66
2018-10-06T22:41:31.260Z,71.64
2018-10-06T22:44:34.783Z,71.62
2018-10-06T22:47:38.306Z,71.68
2018-10-06T22:50:41.911Z,71.72
2018-10-06T22:53:45.415Z,72.05
2018-10-06T22:56:48.926Z,71.93
2018-10-06T22:59:52.420Z,72.07
2018-10-06T23:02:55.992Z,72.44
2018-10-06T23:05:59.401Z,72.75
2018-10-06T23:09:02.880Z,72.92
2018-10-06T23:12:06.356Z,73.08
2018-10-06T23:15:09.841Z,73.22
2018-10-06T23:18:13.321Z,73.37
2018-10-06T23:21:16.902Z,73.54
2018-10-06T23:24:20.344Z,73.11
2018-10-06T23:27:23.843Z,73.03
2018-10-06T23:30:27.290Z,73.26
2018-10-06T23:33:30.745Z,72.62
2018-10-06T23:36:34.143Z,73.63
2018-10-06T23:39:37.538Z,73.53
2018-10-06T23:42:41.987Z,74.02
2018-10-06T23:45:45.525Z,74.08
2018-10-06T23:48:48.980Z,74.20
2018-10-06T23:51:52.494Z,73.75
2018-10-06T23:54:55.970Z,73.94
2018-10-06T23:57:59.367Z,73.65
